createdAt,value
2016-10-11T00:00:22.963Z,17.43
2016-10-11T00:01:33.530Z,17.47
2016-10-11T00:02:44.243Z,17.44
2016-10-11T00:03:54.793Z,17.48
2016-10-11T00:05:05.404Z,17.46
2016-10-11T00:06:16.007Z,17.5
2016-10-11T00:07:27.049Z,17.48
2016-10-11T00:08:37.810Z,17.43
2016-10-11T00:09:48.417Z,17.44
2016-10-11T00:10:59.079Z,17.43
2016-10-11T00:12:09.634Z,17.47
2016-10-11T00:13:20.284Z,17.43
2016-10-11T00:14:30.894Z,17.43
2016-10-11T00:15:41.628Z,17.44
2016-10-11T00:16:52.344Z,17.41
2016-10-11T00:18:02.928Z,17.32
2016-10-11T00:19:13.481Z,17.36
2016-10-11T00:20:24.277Z,17.22
2016-10-11T00:21:34.953Z,17.22
2016-10-11T00:22:46.005Z,17.17
2016-10-11T00:23:57.077Z,17.15
2016-10-11T00:25:08.067Z,17.1
2016-10-11T00:26:18.666Z,17.1
2016-10-11T00:27:29.239Z,17.15
2016-10-11T00:28:39.827Z,17.22
2016-10-11T00:29:50.370Z,17.17
2016-10-11T00:31:00.948Z,17.14
2016-10-11T00:32:11.669Z,17.17
2016-10-11T00:33:22.210Z,17.17
2016-10-11T00:34:32.801Z,17.14
2016-10-11T00:35:43.358Z,17.1
2016-10-11T00:36:53.887Z,17.14
2016-10-11T00:38:04.474Z,17.08
2016-10-11T00:39:15.059Z,17.08
2016-10-11T00:40:25.603Z,17.07
2016-10-11T00:41:36.143Z,17.07
2016-10-11T00:42:46.778Z,17.06
2016-10-11T00:43:57.327Z,17.08
2016-10-11T00:45:07.844Z,17
2016-10-11T00:46:18.397Z,17.06
2016-10-11T00:47:28.971Z,16.9
2016-10-11T00:48:40.312Z,16.95
2016-10-11T00:49:50.965Z,16.96
2016-10-11T00:51:01.525Z,16.98
2016-10-11T00:52:12.117Z,16.93
2016-10-11T00:53:22.648Z,16.98
2016-10-11T00:54:33.215Z,16.85
2016-10-11T00:55:43.930Z,16.88
2016-10-11T00:56:54.503Z,16.81
2016-10-11T00:58:05.077Z,16.86
2016-10-11T00:59:15.627Z,16.83
2016-10-11T01:00:26.154Z,16.75
2016-10-11T01:01:36.805Z,16.77
2016-10-11T01:02:47.319Z,16.77
2016-10-11T01:03:57.825Z,16.86
2016-10-11T01:05:08.363Z,16.75
2016-10-11T01:06:18.935Z,16.85
2016-10-11T01:07:29.883Z,16.85
2016-10-11T01:08:40.799Z,16.78
2016-10-11T01:09:51.339Z,16.78
2016-10-11T01:11:01.883Z,16.75
2016-10-11T01:12:12.465Z,16.62
2016-10-11T01:13:23.104Z,16.68
2016-10-11T01:14:33.634Z,16.65
2016-10-11T01:15:44.198Z,16.73
2016-10-11T01:16:54.735Z,16.68
2016-10-11T01:18:05.328Z,16.65
2016-10-11T01:19:16.116Z,16.7
2016-10-11T01:20:26.633Z,16.74
2016-10-11T01:21:37.616Z,16.8
2016-10-11T01:22:48.208Z,16.73
2016-10-11T01:23:59.244Z,16.73
2016-10-11T01:25:09.979Z,16.62
2016-10-11T01:26:20.558Z,16.77
2016-10-11T01:27:31.149Z,16.75
2016-10-11T01:28:41.714Z,16.86
2016-10-11T01:29:52.260Z,16.8
2016-10-11T01:31:02.911Z,16.78
2016-10-11T01:32:13.421Z,16.75
2016-10-11T01:33:23.931Z,16.77
2016-10-11T01:34:34.513Z,16.8
2016-10-11T01:35:45.089Z,16.77
2016-10-11T01:36:55.633Z,16.81
2016-10-11T01:38:06.662Z,16.86
2016-10-11T01:39:17.237Z,16.78
2016-10-11T01:40:27.819Z,16.77
2016-10-11T01:41:38.344Z,16.88
2016-10-11T01:42:48.999Z,16.8
2016-10-11T01:43:59.966Z,16.85
2016-10-11T01:45:10.529Z,16.86
2016-10-11T01:46:21.087Z,16.81
2016-10-11T01:47:31.663Z,16.81
2016-10-11T01:48:42.350Z,16.81
2016-10-11T01:49:52.878Z,16.8
2016-10-11T01:51:03.398Z,16.81
2016-10-11T01:52:13.904Z,16.83
2016-10-11T01:53:24.837Z,16.78
2016-10-11T01:54:35.425Z,16.73
2016-10-11T01:55:45.968Z,16.83
2016-10-11T01:56:56.507Z,16.8
2016-10-11T01:58:07.415Z,16.78
2016-10-11T01:59:17.911Z,16.81
2016-10-11T02:00:28.417Z,16.89
2016-10-11T02:01:38.900Z,16.8
2016-10-11T02:02:49.426Z,16.83
2016-10-11T02:03:59.940Z,16.83
2016-10-11T02:05:10.444Z,16.73
2016-10-11T02:06:21.064Z,16.77
2016-10-11T02:07:31.627Z,16.81
2016-10-11T02:08:42.160Z,16.93
2016-10-11T02:09:52.647Z,16.89
2016-10-11T02:11:03.178Z,16.85
2016-10-11T02:12:13.705Z,16.75
2016-10-11T02:13:24.214Z,16.83
2016-10-11T02:14:34.701Z,16.71
2016-10-11T02:15:45.220Z,16.6
2016-10-11T02:16:55.747Z,16.68
2016-10-11T02:18:06.380Z,16.63
2016-10-11T02:19:16.884Z,16.62
2016-10-11T02:20:27.428Z,16.68
2016-10-11T02:21:37.969Z,16.73
2016-10-11T02:22:48.486Z,16.75
2016-10-11T02:23:59.101Z,16.74
2016-10-11T02:25:09.629Z,16.7
2016-10-11T02:26:20.139Z,16.71
2016-10-11T02:27:30.650Z,16.74
2016-10-11T02:28:41.149Z,16.74
2016-10-11T02:29:52.188Z,16.62
2016-10-11T02:31:02.689Z,16.8
2016-10-11T02:32:13.218Z,16.8
2016-10-11T02:33:23.708Z,16.7
2016-10-11T02:34:34.221Z,16.7
2016-10-11T02:35:44.718Z,16.65
2016-10-11T02:36:55.262Z,16.67
2016-10-11T02:38:05.786Z,16.73
2016-10-11T02:39:16.344Z,16.77
2016-10-11T02:40:26.853Z,16.75
2016-10-11T02:41:37.523Z,16.6
2016-10-11T02:42:48.051Z,16.65
2016-10-11T02:43:58.621Z,16.68
2016-10-11T02:45:09.136Z,16.77
2016-10-11T02:46:19.629Z,16.71
2016-10-11T02:47:30.234Z,16.71
2016-10-11T02:48:40.738Z,16.78
2016-10-11T02:49:51.248Z,16.68
2016-10-11T02:51:01.773Z,16.71
2016-10-11T02:52:12.276Z,16.62
2016-10-11T02:53:23.295Z,16.65
2016-10-11T02:54:33.787Z,16.65
2016-10-11T02:55:44.300Z,16.71
2016-10-11T02:56:54.815Z,16.65
2016-10-11T02:58:05.336Z,16.65
2016-10-11T02:59:15.866Z,16.58
2016-10-11T03:00:26.345Z,16.55
2016-10-11T03:01:36.830Z,16.49
2016-10-11T03:02:47.334Z,16.65
2016-10-11T03:03:57.815Z,16.7
2016-10-11T03:05:08.433Z,16.7
2016-10-11T03:06:18.915Z,16.7
2016-10-11T03:07:29.820Z,16.63
2016-10-11T03:08:40.337Z,16.56
2016-10-11T03:09:51.339Z,16.58
2016-10-11T03:11:01.945Z,16.55
2016-10-11T03:12:12.416Z,16.55
2016-10-11T03:13:22.948Z,16.45
2016-10-11T03:14:33.470Z,16.53
2016-10-11T03:15:44.403Z,16.59
2016-10-11T03:16:54.892Z,16.56
2016-10-11T03:18:05.372Z,16.53
2016-10-11T03:19:15.901Z,16.53
2016-10-11T03:20:26.403Z,16.5
2016-10-11T03:21:36.942Z,16.55
2016-10-11T03:22:47.585Z,16.56
2016-10-11T03:23:58.132Z,16.56
2016-10-11T03:25:08.670Z,16.58
2016-10-11T03:26:19.573Z,16.67
2016-10-11T03:27:30.105Z,16.59
2016-10-11T03:28:40.701Z,16.65
2016-10-11T03:29:51.224Z,16.58
2016-10-11T03:31:02.251Z,16.63
2016-10-11T03:32:13.178Z,16.62
2016-10-11T03:33:23.724Z,16.68
2016-10-11T03:34:34.383Z,16.63
2016-10-11T03:35:45.413Z,16.63
2016-10-11T03:36:56.432Z,16.68
2016-10-11T03:38:06.961Z,16.65
2016-10-11T03:39:17.489Z,16.65
2016-10-11T03:40:28.007Z,16.63
2016-10-11T03:41:38.509Z,16.56
2016-10-11T03:42:49.495Z,16.59
2016-10-11T03:44:00.019Z,16.63
2016-10-11T03:45:10.521Z,16.58
2016-10-11T03:46:21.225Z,16.56
2016-10-11T03:47:31.744Z,16.58
2016-10-11T03:48:42.232Z,16.55
2016-10-11T03:49:52.733Z,16.55
2016-10-11T03:51:04.183Z,16.63
2016-10-11T03:52:15.248Z,16.6
2016-10-11T03:53:25.778Z,16.59
2016-10-11T03:54:36.742Z,16.7
2016-10-11T03:55:47.209Z,16.67
2016-10-11T03:56:57.689Z,16.71
2016-10-11T03:58:08.170Z,16.7
2016-10-11T03:59:19.703Z,16.68
2016-10-11T04:00:30.683Z,16.71
2016-10-11T04:01:41.712Z,16.67
2016-10-11T04:02:52.261Z,16.7
2016-10-11T04:04:02.870Z,16.62
2016-10-11T04:05:13.387Z,16.65
2016-10-11T04:06:24.354Z,16.62
2016-10-11T04:07:34.868Z,16.59
2016-10-11T04:08:45.861Z,16.65
2016-10-11T04:09:56.459Z,16.65
2016-10-11T04:11:06.946Z,16.62
2016-10-11T04:12:17.934Z,16.68
2016-10-11T04:13:28.897Z,16.68
2016-10-11T04:14:39.766Z,16.68
2016-10-11T04:15:50.375Z,16.68
2016-10-11T04:17:00.902Z,16.68
2016-10-11T04:18:11.456Z,16.71
2016-10-11T04:19:22.447Z,16.73
2016-10-11T04:20:32.921Z,16.7
2016-10-11T04:21:43.504Z,16.7
2016-10-11T04:22:54.025Z,16.7
2016-10-11T04:24:04.981Z,16.67
2016-10-11T04:25:15.487Z,16.62
2016-10-11T04:26:26.010Z,16.65
2016-10-11T04:27:37.084Z,16.62
2016-10-11T04:28:48.105Z,16.68
2016-10-11T04:29:58.579Z,16.71
2016-10-11T04:31:09.601Z,16.73
2016-10-11T04:32:20.569Z,16.63
2016-10-11T04:33:31.896Z,16.63
2016-10-11T04:34:42.455Z,16.8
2016-10-11T04:35:53.502Z,16.8
2016-10-11T04:37:03.983Z,16.73
2016-10-11T04:38:14.539Z,16.7
2016-10-11T04:39:25.223Z,16.74
2016-10-11T04:40:35.732Z,16.73
2016-10-11T04:41:46.719Z,16.74
2016-10-11T04:42:57.270Z,16.75
2016-10-11T04:44:08.289Z,16.71
2016-10-11T04:45:19.436Z,16.67
2016-10-11T04:46:29.969Z,16.7
2016-10-11T04:47:40.536Z,16.7
2016-10-11T04:48:51.613Z,16.74
2016-10-11T04:50:02.167Z,16.63
2016-10-11T04:51:13.270Z,16.67
2016-10-11T04:52:24.240Z,16.71
2016-10-11T04:53:35.225Z,16.74
2016-10-11T04:54:45.812Z,16.67
2016-10-11T04:55:56.826Z,16.73
2016-10-11T04:57:07.455Z,16.74
2016-10-11T04:58:18.016Z,16.71
2016-10-11T04:59:28.531Z,16.7
2016-10-11T05:00:39.593Z,16.78
2016-10-11T05:01:51.158Z,16.75
2016-10-11T05:03:01.808Z,16.73
2016-10-11T05:04:12.360Z,16.77
2016-10-11T05:05:22.887Z,16.71
2016-10-11T05:06:33.408Z,16.78
2016-10-11T05:07:43.934Z,16.73
2016-10-11T05:08:55.099Z,16.73
2016-10-11T05:10:05.612Z,16.78
2016-10-11T05:11:16.491Z,16.73
2016-10-11T05:12:26.981Z,16.74
2016-10-11T05:13:37.445Z,16.65
2016-10-11T05:14:48.339Z,16.77
2016-10-11T05:15:58.817Z,16.77
2016-10-11T05:17:09.316Z,16.83
2016-10-11T05:18:19.788Z,16.83
2016-10-11T05:19:30.288Z,16.81
2016-10-11T05:20:40.969Z,16.8
2016-10-11T05:21:51.922Z,16.77
2016-10-11T05:23:02.463Z,16.8
2016-10-11T05:24:13.351Z,16.81
2016-10-11T05:25:23.825Z,16.78
2016-10-11T05:26:34.449Z,16.75
2016-10-11T05:27:44.922Z,16.86
2016-10-11T05:28:55.433Z,16.81
2016-10-11T05:30:05.956Z,16.8
2016-10-11T05:31:16.862Z,16.85
2016-10-11T05:32:27.534Z,16.8
2016-10-11T05:33:38.067Z,16.88
2016-10-11T05:34:48.576Z,16.8
2016-10-11T05:35:59.113Z,16.8
2016-10-11T05:37:09.634Z,16.86
2016-10-11T05:38:20.169Z,16.81
2016-10-11T05:39:31.096Z,16.88
2016-10-11T05:40:41.625Z,16.81
2016-10-11T05:41:52.127Z,16.77
2016-10-11T05:43:02.675Z,16.85
2016-10-11T05:44:13.303Z,16.8
2016-10-11T05:45:23.857Z,16.86
2016-10-11T05:46:34.863Z,16.75
2016-10-11T05:47:45.424Z,16.77
2016-10-11T05:48:55.926Z,16.8
2016-10-11T05:50:06.536Z,16.8
2016-10-11T05:51:16.998Z,16.8
2016-10-11T05:52:27.532Z,16.86
2016-10-11T05:53:38.032Z,16.8
2016-10-11T05:54:48.585Z,16.81
2016-10-11T05:55:59.235Z,16.85
2016-10-11T05:57:09.782Z,16.8
2016-10-11T05:58:20.317Z,16.75
2016-10-11T05:59:30.792Z,16.85
2016-10-11T06:00:41.303Z,16.75
2016-10-11T06:01:52.038Z,16.77
2016-10-11T06:03:02.506Z,16.8
2016-10-11T06:04:12.981Z,16.78
2016-10-11T06:05:23.516Z,16.81
2016-10-11T06:06:34.055Z,16.77
2016-10-11T06:07:44.693Z,16.77
2016-10-11T06:08:55.185Z,16.77
2016-10-11T06:10:05.689Z,16.8
2016-10-11T06:11:16.189Z,16.85
2016-10-11T06:12:26.701Z,16.85
2016-10-11T06:13:37.733Z,16.93
2016-10-11T06:14:48.263Z,16.81
2016-10-11T06:15:59.152Z,16.92
2016-10-11T06:17:09.633Z,16.89
2016-10-11T06:18:20.124Z,16.85
2016-10-11T06:19:30.728Z,16.83
2016-10-11T06:20:41.671Z,16.86
2016-10-11T06:21:52.148Z,16.86
2016-10-11T06:23:02.641Z,16.81
2016-10-11T06:24:13.159Z,16.88
2016-10-11T06:25:23.731Z,16.75
2016-10-11T06:26:34.275Z,16.77
2016-10-11T06:27:44.777Z,16.83
2016-10-11T06:28:55.270Z,16.83
2016-10-11T06:30:05.769Z,16.71
2016-10-11T06:31:16.355Z,16.65
2016-10-11T06:32:26.879Z,16.63
2016-10-11T06:33:37.347Z,16.74
2016-10-11T06:34:47.830Z,16.77
2016-10-11T06:35:58.724Z,16.65
2016-10-11T06:37:09.295Z,16.62
2016-10-11T06:38:19.787Z,16.7
2016-10-11T06:39:30.287Z,16.71
2016-10-11T06:40:40.771Z,16.73
2016-10-11T06:41:51.252Z,16.78
2016-10-11T06:43:01.841Z,16.75
2016-10-11T06:44:12.332Z,16.75
2016-10-11T06:45:22.857Z,16.71
2016-10-11T06:46:33.360Z,16.74
2016-10-11T06:47:43.873Z,16.77
2016-10-11T06:48:54.404Z,16.78
2016-10-11T06:50:04.925Z,16.81
2016-10-11T06:51:15.408Z,16.75
2016-10-11T06:52:25.905Z,16.68
2016-10-11T06:53:36.372Z,16.68
2016-10-11T06:54:46.936Z,16.78
2016-10-11T06:55:57.392Z,16.73
2016-10-11T06:57:07.864Z,16.77
2016-10-11T06:58:18.325Z,16.74
2016-10-11T06:59:28.802Z,16.77
2016-10-11T07:00:39.367Z,16.8
2016-10-11T07:01:49.844Z,16.78
2016-10-11T07:03:00.304Z,16.8
2016-10-11T07:04:10.754Z,16.77
2016-10-11T07:05:21.219Z,16.78
2016-10-11T07:06:31.787Z,16.75
2016-10-11T07:07:42.244Z,16.75
2016-10-11T07:08:53.110Z,16.74
2016-10-11T07:10:03.565Z,16.7
2016-10-11T07:11:14.031Z,16.63
2016-10-11T07:12:24.603Z,16.8
2016-10-11T07:13:35.071Z,16.75
2016-10-11T07:14:45.914Z,16.75
2016-10-11T07:15:56.374Z,16.81
2016-10-11T07:17:07.252Z,16.85
2016-10-11T07:18:18.095Z,16.78
2016-10-11T07:19:28.570Z,16.8
2016-10-11T07:20:39.048Z,16.83
2016-10-11T07:21:49.514Z,16.74
2016-10-11T07:22:59.997Z,16.75
2016-10-11T07:24:10.560Z,16.78
2016-10-11T07:25:21.412Z,16.8
2016-10-11T07:26:31.873Z,16.83
2016-10-11T07:27:42.432Z,16.83
2016-10-11T07:28:52.989Z,16.81
2016-10-11T07:30:03.619Z,16.83
2016-10-11T07:31:14.194Z,16.81
2016-10-11T07:32:24.758Z,16.86
2016-10-11T07:33:35.264Z,16.83
2016-10-11T07:34:45.799Z,16.88
2016-10-11T07:35:56.432Z,16.75
2016-10-11T07:37:07.014Z,16.78
2016-10-11T07:38:17.553Z,16.92
2016-10-11T07:39:28.442Z,16.8
2016-10-11T07:40:38.967Z,16.81
2016-10-11T07:41:49.512Z,16.78
2016-10-11T07:43:00.521Z,16.9
2016-10-11T07:44:11.110Z,16.88
2016-10-11T07:45:21.632Z,16.83
2016-10-11T07:46:32.119Z,16.8
2016-10-11T07:47:42.750Z,16.89
2016-10-11T07:48:53.823Z,16.83
2016-10-11T07:50:04.358Z,16.93
2016-10-11T07:51:15.265Z,16.93
2016-10-11T07:52:25.834Z,16.92
2016-10-11T07:53:36.465Z,16.93
2016-10-11T07:54:47.054Z,16.88
2016-10-11T07:55:57.633Z,16.95
2016-10-11T07:57:08.171Z,16.98
2016-10-11T07:58:18.684Z,16.93
2016-10-11T07:59:29.331Z,16.92
2016-10-11T08:00:39.921Z,16.95
2016-10-11T08:01:50.512Z,16.89
2016-10-11T08:03:01.092Z,16.93
2016-10-11T08:04:11.690Z,16.93
2016-10-11T08:05:22.279Z,16.88
2016-10-11T08:06:33.256Z,16.9
2016-10-11T08:07:43.830Z,16.8
2016-10-11T08:08:54.434Z,16.98
2016-10-11T08:10:05.021Z,16.92
2016-10-11T08:11:15.707Z,16.89
2016-10-11T08:12:26.289Z,16.9
2016-10-11T08:13:36.871Z,16.99
2016-10-11T08:14:47.452Z,16.9
2016-10-11T08:15:58.047Z,16.89
2016-10-11T08:17:08.736Z,16.93
2016-10-11T08:18:19.315Z,16.92
2016-10-11T08:19:29.896Z,16.89
2016-10-11T08:20:40.975Z,16.9
2016-10-11T08:21:51.569Z,16.92
2016-10-11T08:23:02.247Z,16.9
2016-10-11T08:24:13.226Z,16.86
2016-10-11T08:25:23.819Z,16.9
2016-10-11T08:26:34.410Z,16.96
2016-10-11T08:27:44.992Z,16.93
2016-10-11T08:28:55.573Z,16.96
2016-10-11T08:30:06.165Z,16.88
2016-10-11T08:31:16.752Z,16.81
2016-10-11T08:32:27.351Z,16.95
2016-10-11T08:33:37.940Z,16.81
2016-10-11T08:34:48.636Z,16.92
2016-10-11T08:35:59.229Z,16.96
2016-10-11T08:37:09.819Z,16.95
2016-10-11T08:38:20.406Z,16.92
2016-10-11T08:39:30.989Z,16.95
2016-10-11T08:40:41.673Z,16.98
2016-10-11T08:41:52.268Z,16.98
2016-10-11T08:43:02.854Z,16.95
2016-10-11T08:44:13.446Z,16.95
2016-10-11T08:45:24.049Z,16.92
2016-10-11T08:46:35.132Z,16.98
2016-10-11T08:47:45.724Z,16.98
2016-10-11T08:48:56.314Z,16.92
2016-10-11T08:50:06.895Z,16.86
2016-10-11T08:51:17.982Z,16.89
2016-10-11T08:52:28.567Z,16.96
2016-10-11T08:53:39.145Z,16.9
2016-10-11T08:54:49.737Z,16.93
2016-10-11T08:56:00.325Z,16.92
2016-10-11T08:57:10.910Z,16.98
2016-10-11T08:58:21.602Z,16.95
2016-10-11T08:59:32.188Z,16.98
2016-10-11T09:00:42.789Z,16.99
2016-10-11T09:01:53.367Z,16.98
2016-10-11T09:03:03.951Z,16.95
2016-10-11T09:04:14.633Z,16.99
2016-10-11T09:05:26.007Z,16.98
2016-10-11T09:06:36.597Z,17.11
2016-10-11T09:07:47.177Z,16.99
2016-10-11T09:08:57.767Z,17.04
2016-10-11T09:10:08.472Z,17.03
2016-10-11T09:11:19.059Z,17
2016-10-11T09:12:29.649Z,17
2016-10-11T09:13:40.245Z,17.11
2016-10-11T09:14:51.605Z,17.15
2016-10-11T09:16:02.203Z,17.2
2016-10-11T09:17:12.797Z,17.13
2016-10-11T09:18:23.777Z,17.18
2016-10-11T09:19:34.766Z,17.23
2016-10-11T09:20:45.360Z,17.28
2016-10-11T09:21:56.056Z,17.25
2016-10-11T09:23:06.643Z,17.33
2016-10-11T09:24:17.239Z,17.26
2016-10-11T09:25:28.210Z,17.38
2016-10-11T09:26:38.800Z,17.33
2016-10-11T09:27:49.494Z,17.41
2016-10-11T09:29:00.098Z,17.41
2016-10-11T09:30:10.759Z,17.41
2016-10-11T09:31:21.342Z,17.48
2016-10-11T09:32:31.928Z,17.43
2016-10-11T09:33:42.623Z,17.51
2016-10-11T09:34:53.245Z,17.5
2016-10-11T09:36:03.841Z,17.47
2016-10-11T09:37:14.440Z,17.48
2016-10-11T09:38:25.035Z,17.51
2016-10-11T09:39:35.618Z,17.51
2016-10-11T09:40:46.205Z,17.46
2016-10-11T09:41:56.792Z,17.43
2016-10-11T09:43:07.385Z,17.44
2016-10-11T09:44:17.982Z,17.47
2016-10-11T09:45:28.667Z,17.36
2016-10-11T09:46:39.256Z,17.44
2016-10-11T09:47:49.838Z,17.47
2016-10-11T09:49:00.428Z,17.48
2016-10-11T09:50:11.013Z,17.47
2016-10-11T09:51:21.711Z,17.54
2016-10-11T09:52:32.308Z,17.55
2016-10-11T09:53:43.386Z,17.62
2016-10-11T09:54:53.964Z,17.62
2016-10-11T09:56:04.549Z,17.69
2016-10-11T09:57:15.230Z,17.63
2016-10-11T09:58:25.812Z,17.59
2016-10-11T09:59:36.405Z,17.67
2016-10-11T10:00:46.996Z,17.67
2016-10-11T10:01:58.462Z,17.7
2016-10-11T10:03:09.164Z,17.7
2016-10-11T10:04:20.241Z,17.78
2016-10-11T10:05:30.837Z,17.84
2016-10-11T10:06:41.427Z,17.87
2016-10-11T10:07:52.018Z,17.84
2016-10-11T10:09:02.710Z,17.7
2016-10-11T10:10:13.297Z,17.76
2016-10-11T10:11:23.875Z,17.76
2016-10-11T10:12:34.469Z,17.76
2016-10-11T10:13:45.054Z,17.73
2016-10-11T10:14:55.747Z,17.74
2016-10-11T10:16:06.332Z,17.7
2016-10-11T10:17:17.313Z,17.66
2016-10-11T10:18:27.897Z,17.73
2016-10-11T10:19:38.491Z,17.78
2016-10-11T10:20:49.180Z,17.71
2016-10-11T10:21:59.775Z,17.81
2016-10-11T10:23:10.370Z,17.74
2016-10-11T10:24:20.960Z,17.95
2016-10-11T10:25:31.553Z,18.04
2016-10-11T10:26:42.237Z,18.03
2016-10-11T10:27:52.824Z,18.07
2016-10-11T10:29:03.413Z,18.19
2016-10-11T10:30:14.004Z,18.21
2016-10-11T10:31:24.582Z,18.15
2016-10-11T10:32:35.274Z,18.09
2016-10-11T10:33:45.862Z,18.12
2016-10-11T10:34:56.454Z,18.15
2016-10-11T10:36:07.038Z,18.28
2016-10-11T10:37:17.619Z,18.25
2016-10-11T10:38:28.422Z,18.34
2016-10-11T10:39:39.018Z,18.34
2016-10-11T10:40:49.615Z,18.25
2016-10-11T10:42:00.212Z,18.21
2016-10-11T10:43:10.806Z,18.19
2016-10-11T10:44:21.494Z,18.31
2016-10-11T10:45:32.094Z,18.4
2016-10-11T10:46:42.687Z,18.44
2016-10-11T10:47:53.284Z,18.5
2016-10-11T10:49:03.874Z,18.57
2016-10-11T10:50:14.951Z,18.57
2016-10-11T10:51:25.670Z,18.72
2016-10-11T10:52:36.295Z,18.8
2016-10-11T10:53:46.877Z,18.79
2016-10-11T10:54:57.457Z,18.82
2016-10-11T10:56:08.085Z,18.74
2016-10-11T10:57:18.622Z,18.82
2016-10-11T10:58:29.157Z,18.87
2016-10-11T10:59:39.667Z,18.87
2016-10-11T11:00:50.248Z,18.64
2016-10-11T11:02:00.922Z,18.7
2016-10-11T11:03:11.483Z,18.68
2016-10-11T11:04:22.010Z,18.68
2016-10-11T11:05:32.596Z,18.67
2016-10-11T11:06:43.137Z,18.73
2016-10-11T11:07:53.774Z,18.54
2016-10-11T11:09:04.347Z,18.73
2016-10-11T11:10:14.870Z,18.54
2016-10-11T11:11:25.427Z,18.57
2016-10-11T11:12:35.986Z,18.47
2016-10-11T11:13:46.729Z,18.52
2016-10-11T11:14:57.302Z,18.68
2016-10-11T11:16:07.884Z,18.72
2016-10-11T11:17:18.437Z,18.84
2016-10-11T11:18:29.031Z,18.91
2016-10-11T11:19:39.549Z,18.91
2016-10-11T11:20:50.059Z,18.97
2016-10-11T11:22:00.604Z,19.01
2016-10-11T11:23:11.136Z,19.06
2016-10-11T11:24:22.079Z,19.13
2016-10-11T11:25:32.733Z,19.02
2016-10-11T11:26:43.256Z,19.02
2016-10-11T11:27:54.316Z,19.23
2016-10-11T11:29:04.838Z,19.4
2016-10-11T11:30:15.338Z,19.4
2016-10-11T11:31:26.010Z,19.47
2016-10-11T11:32:36.504Z,19.61
2016-10-11T11:33:47.043Z,19.7
2016-10-11T11:34:57.546Z,19.73
2016-10-11T11:36:08.065Z,19.83
2016-10-11T11:37:18.679Z,19.9
2016-10-11T11:38:29.166Z,19.69
2016-10-11T11:39:39.702Z,19.69
2016-10-11T11:40:50.239Z,19.87
2016-10-11T11:42:00.867Z,19.88
2016-10-11T11:43:11.539Z,20.09
2016-10-11T11:44:22.075Z,20.18
2016-10-11T11:45:32.579Z,20.21
2016-10-11T11:46:43.105Z,20.59
2016-10-11T11:47:53.600Z,20.62
2016-10-11T11:49:04.170Z,21.02
2016-10-11T11:50:14.700Z,21.19
2016-10-11T11:51:25.563Z,21.06
2016-10-11T11:52:36.051Z,21.14
2016-10-11T11:53:46.560Z,21.27
2016-10-11T11:54:57.187Z,21.34
2016-10-11T11:56:07.660Z,21.56
2016-10-11T11:57:18.528Z,21.78
2016-10-11T11:58:29.446Z,22.01
2016-10-11T11:59:39.955Z,21.83
2016-10-11T12:00:50.608Z,21.69
2016-10-11T12:02:01.559Z,21.46
2016-10-11T12:03:12.106Z,21.6
2016-10-11T12:04:22.660Z,21.74
2016-10-11T12:05:33.156Z,21.67
2016-10-11T12:06:43.732Z,21.76
2016-10-11T12:07:54.612Z,21.79
2016-10-11T12:09:05.116Z,21.82
2016-10-11T12:10:15.632Z,22.04
2016-10-11T12:11:26.623Z,22.2
2016-10-11T12:12:37.243Z,22.38
2016-10-11T12:13:47.777Z,22.14
2016-10-11T12:14:58.346Z,21.85
2016-10-11T12:16:08.842Z,21.79
2016-10-11T12:17:19.382Z,21.74
2016-10-11T12:18:29.985Z,21.57
2016-10-11T12:19:40.485Z,21.36
2016-10-11T12:20:50.960Z,21.3
2016-10-11T12:22:01.497Z,21.39
2016-10-11T12:23:11.981Z,21.05
2016-10-11T12:24:22.601Z,21.2
2016-10-11T12:25:33.113Z,21.11
2016-10-11T12:26:43.640Z,21.06
2016-10-11T12:27:54.124Z,21.11
2016-10-11T12:29:05.013Z,21.09
2016-10-11T12:30:15.607Z,21.05
2016-10-11T12:31:26.093Z,21.08
2016-10-11T12:32:36.620Z,21.06
2016-10-11T12:33:47.089Z,21.17
2016-10-11T12:34:57.621Z,21.24
2016-10-11T12:36:08.203Z,21.34
2016-10-11T12:37:18.743Z,21.6
2016-10-11T12:38:29.323Z,21.83
2016-10-11T12:39:39.868Z,21.79
2016-10-11T12:40:50.437Z,21.78
2016-10-11T12:42:01.460Z,21.66
2016-10-11T12:43:12.034Z,21.46
2016-10-11T12:44:22.565Z,21.57
2016-10-11T12:45:33.127Z,21.61
2016-10-11T12:46:43.621Z,21.72
2016-10-11T12:47:54.379Z,21.76
2016-10-11T12:49:04.917Z,21.83
2016-10-11T12:50:15.484Z,21.94
2016-10-11T12:51:26.043Z,22.27
2016-10-11T12:52:36.618Z,22.54
2016-10-11T12:53:47.357Z,22.83
2016-10-11T12:54:58.677Z,22.99
2016-10-11T12:56:09.153Z,23.2
2016-10-11T12:57:20.087Z,23.19
2016-10-11T12:58:30.633Z,23.11
2016-10-11T12:59:41.484Z,23.04
2016-10-11T13:00:52.013Z,22.92
2016-10-11T13:02:02.534Z,22.92
2016-10-11T13:03:13.469Z,23.02
2016-10-11T13:04:24.052Z,22.97
2016-10-11T13:05:34.722Z,22.72
2016-10-11T13:06:45.240Z,22.87
2016-10-11T13:07:55.805Z,22.99
2016-10-11T13:09:06.384Z,23.22
2016-10-11T13:10:16.970Z,23.47
2016-10-11T13:11:27.660Z,23.53
2016-10-11T13:12:38.244Z,23.53
2016-10-11T13:13:48.841Z,23.62
2016-10-11T13:14:59.434Z,23.86
2016-10-11T13:16:10.234Z,24.26
2016-10-11T13:17:21.431Z,24.56
2016-10-11T13:18:32.025Z,24.8
2016-10-11T13:19:42.619Z,25.06
2016-10-11T13:20:53.202Z,25
2016-10-11T13:22:04.296Z,24.95
2016-10-11T13:23:15.390Z,24.82
2016-10-11T13:24:25.996Z,24.73
2016-10-11T13:25:36.593Z,24.61
2016-10-11T13:26:47.569Z,24.75
2016-10-11T13:27:58.157Z,24.82
2016-10-11T13:29:08.959Z,25
2016-10-11T13:30:19.566Z,25.1
2016-10-11T13:31:30.144Z,25.06
2016-10-11T13:32:40.718Z,24.97
2016-10-11T13:33:51.313Z,24.9
2016-10-11T13:35:02.403Z,25.02
2016-10-11T13:36:12.991Z,25.22
2016-10-11T13:37:23.590Z,25.19
2016-10-11T13:38:34.195Z,25.06
2016-10-11T13:39:44.784Z,24.76
2016-10-11T13:40:55.867Z,24.64
2016-10-11T13:42:06.456Z,24.82
2016-10-11T13:43:17.043Z,24.87
2016-10-11T13:44:27.631Z,24.95
2016-10-11T13:45:38.199Z,25.01
2016-10-11T13:46:48.861Z,25.15
2016-10-11T13:47:59.398Z,25.15
2016-10-11T13:49:09.975Z,25.19
2016-10-11T13:50:21.856Z,25.02
2016-10-11T13:51:32.404Z,25.1
2016-10-11T13:52:43.068Z,25.32
2016-10-11T13:53:53.596Z,25.77
2016-10-11T13:55:04.128Z,26.08
2016-10-11T13:56:14.686Z,26.43
2016-10-11T13:57:25.995Z,26.69
2016-10-11T13:58:37.057Z,26.81
2016-10-11T13:59:47.627Z,26.59
2016-10-11T14:00:58.426Z,26.35
2016-10-11T14:02:08.984Z,26.4
2016-10-11T14:03:19.567Z,26.36
2016-10-11T14:04:30.692Z,26.29
2016-10-11T14:05:41.259Z,26.25
2016-10-11T14:06:51.819Z,26.06
2016-10-11T14:08:02.424Z,25.75
2016-10-11T14:09:12.991Z,25.83
2016-10-11T14:10:23.622Z,25.87
2016-10-11T14:11:34.175Z,26.01
2016-10-11T14:12:44.751Z,26.49
2016-10-11T14:13:55.334Z,26.46
2016-10-11T14:15:05.909Z,26.31
2016-10-11T14:16:16.564Z,26.32
2016-10-11T14:17:27.156Z,26.35
2016-10-11T14:18:37.727Z,26.36
2016-10-11T14:19:48.316Z,26.09
2016-10-11T14:20:58.898Z,25.98
2016-10-11T14:22:09.605Z,25.93
2016-10-11T14:23:20.202Z,25.87
2016-10-11T14:24:30.796Z,25.86
2016-10-11T14:25:41.386Z,25.89
2016-10-11T14:26:51.980Z,26.06
2016-10-11T14:28:02.924Z,26.01
2016-10-11T14:29:13.513Z,26.18
2016-10-11T14:30:24.123Z,26.18
2016-10-11T14:31:34.731Z,26.59
2016-10-11T14:32:45.338Z,27.14
2016-10-11T14:33:56.130Z,27.48
2016-10-11T14:35:07.223Z,27.86
2016-10-11T14:36:17.819Z,28.03
2016-10-11T14:37:28.431Z,27.94
2016-10-11T14:38:39.029Z,27.84
2016-10-11T14:39:49.879Z,27.82
2016-10-11T14:41:00.494Z,27.82
2016-10-11T14:42:11.099Z,27.88
2016-10-11T14:43:21.694Z,27.58
2016-10-11T14:44:32.278Z,27.28
2016-10-11T14:45:42.964Z,27.23
2016-10-11T14:46:53.962Z,27.2
2016-10-11T14:48:04.559Z,26.98
2016-10-11T14:49:15.164Z,26.73
2016-10-11T14:50:26.263Z,26.91
2016-10-11T14:51:37.006Z,26.99
2016-10-11T14:52:47.598Z,27.54
2016-10-11T14:53:58.193Z,28.06
2016-10-11T14:55:08.730Z,28.51
2016-10-11T14:56:19.299Z,28.88
2016-10-11T14:57:29.980Z,29.19
2016-10-11T14:58:40.524Z,29.01
2016-10-11T14:59:51.068Z,29.03
2016-10-11T15:01:01.987Z,29.33
2016-10-11T15:02:12.566Z,29.18
2016-10-11T15:03:23.283Z,29.26
2016-10-11T15:04:33.809Z,28.96
2016-10-11T15:05:44.386Z,28.54
2016-10-11T15:06:54.922Z,28.29
2016-10-11T15:08:05.469Z,28.29
2016-10-11T15:09:16.091Z,28.17
2016-10-11T15:10:26.654Z,27.92
2016-10-11T15:11:37.198Z,27.96
2016-10-11T15:12:47.794Z,27.8
2016-10-11T15:13:58.335Z,27.88